• Join FlightAware (Why Join?)
  • Login
  • US Flag 
09:37PM EST


 

Airport Tracker/Info


-or-


 

Live Flight TrackerFlight Track Log ✈ AWE3794 ✈ 26-Apr-2013 ✈ KPHL - KCLE

Flight Track Log - Related Links

Times and Time Zones

All times are in EDT time to prevent confusion due to time zone crossing. See the AWE3794 flight status page for this flight to view local times or setup timezone preferences in your user account.

Time Position Orientation Groundspeed Altitude Reporting Facility
EDT Latitude Longitude Course Direction KTS MPH feet Rate Location/Type
07:32AM 39.8667 -75.2667 311° West 174 200 600  Level Philadelphia TRACON
07:33AM 39.8500 -75.3167 247° West 179 206 2,900 3,000 Climbing Philadelphia TRACON
07:35AM 40.0658 -75.4157 323° Northwest  Level FlightAware Approximate
07:35AM 39.8333 -75.4167 258° West 212 244 7,300  Level Philadelphia TRACON
07:36AM 40.1336 -75.4835 323° Northwest  Level FlightAware Approximate
07:36AM 39.8667 -75.4667 311° West 276 318 9,000  Level Philadelphia TRACON
07:36AM 39.9167 -75.4833 346° North 289 333 9,000  Level Philadelphia TRACON
07:37AM 40.2018 -75.5500 North  Level FlightAware Approximate
07:37AM 39.9378 -75.4925 342° North 286 329 9,000  Level New York Center
07:38AM 40.2631 -75.6195 311° West  Level FlightAware Approximate
07:38AM 40.0183 -75.5114 350° North 315 362 10,900  Level New York Center
07:39AM 40.1050 -75.5308 350° North 310 357 12,000 1,500 Climbing New York Center
07:40AM 40.2081 -75.5572 349° North 331 381 14,000 1,980 Climbing New York Center
07:41AM 40.2756 -75.6406 317° Northwest 322 371 16,000 1,440 Climbing New York Center
07:42AM 40.3344 -75.7267 312° West 341 392 17,000 480 Climbing New York Center
07:43AM 40.3953 -75.8208 310° West 346 398 17,000  Level New York Center
07:44AM 40.4464 -75.9364 300° West 346 398 17,100 420 Climbing New York Center
07:45AM 40.4647 -76.0414 283° West 334 384 17,900 1,320 Climbing New York Center
07:46AM 40.4822 -76.1628 281° West 334 384 19,800 1,680 Climbing New York Center
07:47AM 40.5017 -76.2844 282° West 339 390 21,300 1,440 Climbing New York Center
07:48AM 40.5208 -76.4089 281° West 339 390 22,700 1,260 Climbing New York Center
07:49AM 40.5397 -76.5333 281° West 339 390 23,900 1,020 Climbing New York Center
07:50AM 40.5669 -76.6586 286° West 344 396 24,800 1,140 Climbing New York Center
07:51AM 40.6003 -76.7819 290° West 354 407 26,200 1,560 Climbing New York Center
07:52AM 40.6317 -76.8994 289° West 354 407 28,000 840 Climbing New York Center
07:53AM 40.6667 -77.0311 289° West 349 402 28,000  Level New York Center
07:54AM 40.6975 -77.1572 288° West 354 407 28,000  Level New York Center
07:55AM 40.7306 -77.2753 290° West 354 407 28,000  Level New York Center
07:56AM 40.7633 -77.3964 290° West 354 407 28,000  Level New York Center
07:57AM 40.7942 -77.5172 289° West 354 407 28,000  Level New York Center
07:58AM 40.8247 -77.6356 289° West 354 407 28,000  Level New York Center
07:59AM 40.8719 -77.8261 288° West 349 402 28,000  Level Cleveland Center
08:00AM 40.9019 -77.9458 288° West 349 402 28,000  Level Cleveland Center
08:01AM 40.9275 -78.0656 286° West 343 395 28,000  Level Cleveland Center
08:02AM 40.9489 -78.1886 283° West 343 395 28,000  Level Cleveland Center
08:03AM 40.9747 -78.3253 284° West 343 395 28,000  Level Cleveland Center
08:04AM 40.9936 -78.4483 282° West 343 395 28,000 -240 Level Cleveland Center
08:05AM 41.0147 -78.5714 283° West 343 395 27,600 -720 Descending Cleveland Center
08:06AM 41.0336 -78.6975 281° West 350 403 26,600 -840 Descending Cleveland Center
08:07AM 41.0544 -78.8264 282° West 355 409 26,000 -300 Descending Cleveland Center
08:08AM 41.0728 -78.9525 281° West 355 409 26,000  Level Cleveland Center
08:09AM 41.0933 -79.0842 282° West 355 409 26,000  Level Cleveland Center
08:10AM 41.1139 -79.2133 282° West 360 414 26,000  Level Cleveland Center
08:11AM 41.1342 -79.3425 282° West 360 414 26,000  Level Cleveland Center
08:12AM 41.1542 -79.4692 282° West 360 414 26,000 -60 Level Cleveland Center
08:13AM 41.1719 -79.5872 281° West 360 414 25,900 -600 Descending Cleveland Center
08:14AM 41.1917 -79.7222 281° West 360 414 24,900 -960 Descending Cleveland Center
08:15AM 41.2092 -79.8517 280° West 365 420 24,000 -480 Descending Cleveland Center
08:16AM 41.2289 -79.9786 282° West 365 420 24,000  Level Cleveland Center
08:17AM 41.2503 -80.1053 283° West 360 414 24,000 -420 Level Cleveland Center
08:18AM 41.2694 -80.2322 281° West 355 409 23,200 -1,380 Descending Cleveland Center
08:19AM 41.2864 -80.3647 280° West 355 409 21,300 -1,920 Descending Cleveland Center
08:20AM 41.3053 -80.4919 281° West 355 409 19,400 -1,740 Descending Cleveland Center
08:21AM 41.3242 -80.6328 280° West 355 409 17,900 -1,740 Descending Cleveland Center
08:22AM 41.3575 -80.7492 291° West 347 399 16,000 -1,920 Descending Cleveland Center
08:23AM 41.4011 -80.8600 298° West 341 392 14,100 -1,980 Descending Cleveland Center
08:24AM 41.4156 -80.8989 296° West 335 386 13,400 -1,920 Descending Cleveland Center
08:24AM 41.4422 -80.9681 297° West 335 386 12,200 -1,860 Descending Cleveland Center
08:25AM 41.4647 -81.0875 284° West 328 377 10,300 -1,020 Descending Cleveland Center
08:26AM 41.4725 -81.2261 274° West 339 390 10,000 -240 Descending Cleveland Center
08:27AM 41.4822 -81.3231 278° West 326 375 9,900 -480 Descending Cleveland Center
08:28AM 41.4842 -81.3508 275° West 261 300 9,500 -1,800 Descending Cleveland Center
08:28AM 41.4878 -81.4175 274° West 282 325 8,100 -1,920 Descending Cleveland Center
08:29AM 41.4975 -81.5203 277° West 246 283 6,100 -1,800 Descending Cleveland Center
08:30AM 41.5053 -81.5950 278° West 248 285 4,500 -1,140 Descending Cleveland Center
08:31AM 41.5147 -81.6814 278° West 234 269 4,000 -540 Descending Cleveland Center